Time;durP1;ratioP1;P1;durP2;ratioP2;P2;SDS_P1;SDS_P2;PMS_P1;PMS_P2;Temp;Humidity;BMP_temperature;BMP_pressure;BME280_temperature;BME280_humidity;BME280_pressure;Samples;Min_cycle;Max_cycle;Signal;HPM_P1;HPM_P2
2023/08/21 00:04:20;;;;;;;6.10;5.30;;;21.00;1.00;;;;;;9949371;29;20247;-80
2023/08/21 00:09:42;;;;;;;6.43;5.63;;;21.00;99.90;;;;;;9944029;29;20245;-83
2023/08/21 00:15:04;;;;;;;7.95;5.50;;;;;;;;;;9943828;29;20431;-80
2023/08/21 00:20:25;;;;;;;5.78;4.57;;;20.80;1.00;;;;;;9928986;29;20217;-84
2023/08/21 00:25:47;;;;;;;6.82;4.95;;;20.80;1.00;;;;;;9943227;29;20220;-80
2023/08/21 00:31:09;;;;;;;6.18;5.32;;;;;;;;;;9941533;29;20205;-89
2023/08/21 00:36:31;;;;;;;5.47;4.72;;;;;;;;;;9941760;29;20225;-86
2023/08/21 00:41:52;;;;;;;6.93;5.10;;;20.50;1.00;;;;;;9927858;29;20309;-80
2023/08/21 00:47:13;;;;;;;8.95;5.43;;;20.40;99.90;;;;;;9940830;29;20201;-87
2023/08/21 00:52:36;;;;;;;7.40;5.18;;;;;;;;;;9939378;29;20296;-85
2023/08/21 00:58:00;;;;;;;5.93;5.13;;;20.20;1.00;;;;;;9948284;29;20284;-85
2023/08/21 01:03:22;;;;;;;6.63;4.85;;;20.10;99.90;;;;;;9948021;29;20258;-84
2023/08/21 01:09:31;;;;;;;7.22;5.20;;;20.00;1.00;;;;;;9936406;29;20286;-85
2023/08/21 01:15:09;;;;;;;6.95;5.20;;;19.90;99.90;;;;;;9992432;29;20215;-80
2023/08/21 01:20:31;;;;;;;7.75;5.32;;;19.80;1.00;;;;;;9991418;29;20216;-83
2023/08/21 01:25:52;;;;;;;5.20;4.20;;;19.60;1.00;;;;;;9942354;29;20216;-84
2023/08/21 01:31:23;;;;;;;6.95;4.55;;;19.60;1.00;;;;;;9954983;29;20212;-85
2023/08/21 01:36:48;;;;;;;5.25;3.90;;;19.60;1.00;;;;;;9954586;29;20216;-83
2023/08/21 01:42:09;;;;;;;5.82;3.00;;;19.60;99.90;;;;;;9957589;29;20296;-82
2023/08/21 01:47:30;;;;;;;5.13;3.35;;;19.60;1.00;;;;;;9947316;29;20237;-86
2023/08/21 01:52:52;;;;;;;4.43;2.58;;;19.50;99.90;;;;;;9946523;29;20254;-82
2023/08/21 01:58:13;;;;;;;2.78;2.30;;;19.50;1.00;;;;;;9911998;29;20213;-89
2023/08/21 02:03:35;;;;;;;5.28;2.50;;;19.50;1.00;;;;;;9909490;29;20233;-86
2023/08/21 02:08:57;;;;;;;4.38;2.45;;;19.30;1.00;;;;;;9910352;29;20540;-88
2023/08/21 02:14:18;;;;;;;4.97;2.60;;;19.30;1.00;;;;;;9916200;29;20214;-90
2023/08/21 02:19:40;;;;;;;5.88;2.40;;;19.30;1.00;;;;;;9918000;29;20206;-89
2023/08/21 02:25:01;;;;;;;3.22;2.00;;;19.40;1.00;;;;;;9954788;29;20233;-86
2023/08/21 02:30:25;;;;;;;4.55;2.13;;;19.30;1.00;;;;;;9946262;29;20201;-85
2023/08/21 02:35:46;;;;;;;2.90;2.10;;;19.30;99.90;;;;;;9947846;29;20435;-90
2023/08/21 02:41:07;;;;;;;1.80;1.60;;;19.20;1.00;;;;;;9948825;29;20456;-89
2023/08/21 02:46:29;;;;;;;2.42;1.70;;;19.20;1.00;;;;;;9957219;29;20213;-89
2023/08/21 02:51:50;;;;;;;2.10;1.90;;;19.20;1.00;;;;;;9927063;29;20216;-85
2023/08/21 02:57:11;;;;;;;2.45;1.85;;;19.20;1.00;;;;;;9931679;29;20208;-88
2023/08/21 03:02:33;;;;;;;4.53;2.00;;;19.30;1.00;;;;;;9944206;29;20419;-82
2023/08/21 03:07:54;;;;;;;2.28;2.00;;;19.30;1.00;;;;;;9930194;29;20209;-81
2023/08/21 03:13:15;;;;;;;3.55;2.33;;;19.30;1.00;;;;;;9930991;29;20402;-90
2023/08/21 03:18:58;;;;;;;3.80;2.50;;;19.30;1.00;;;;;;9930220;29;20262;-82
2023/08/21 03:24:22;;;;;;;4.57;2.63;;;19.20;1.00;;;;;;9929653;29;20411;-79
2023/08/21 03:29:48;;;;;;;2.80;2.17;;;19.10;99.90;;;;;;9929948;30;20211;-80
2023/08/21 03:35:09;;;;;;;5.25;2.67;;;18.90;99.90;;;;;;9929479;29;20213;-80
2023/08/21 03:40:31;;;;;;;5.72;2.42;;;18.90;1.00;;;;;;9942302;29;20228;-80
2023/08/21 03:45:53;;;;;;;5.00;2.75;;;18.90;99.90;;;;;;9949168;29;20208;-81
2023/08/21 03:51:14;;;;;;;3.33;2.38;;;18.90;99.90;;;;;;9951033;29;20213;-82
2023/08/21 03:56:36;;;;;;;5.22;2.63;;;;;;;;;;9941993;29;20254;-80
2023/08/21 04:01:58;;;;;;;6.25;2.65;;;;;;;;;;9942000;29;20229;-89
2023/08/21 04:07:19;;;;;;;5.63;2.30;;;18.70;99.90;;;;;;9917060;30;20220;-90
2023/08/21 04:12:40;;;;;;;5.78;3.33;;;18.70;99.90;;;;;;9928345;29;20260;-80
2023/08/21 04:18:02;;;;;;;6.38;3.70;;;18.70;99.90;;;;;;9943807;29;20205;-89
2023/08/21 04:23:23;;;;;;;5.28;2.83;;;18.70;1.00;;;;;;9930357;29;20546;-91
2023/08/21 04:28:45;;;;;;;7.82;3.00;;;18.80;1.00;;;;;;9943574;29;20216;-79
2023/08/21 04:34:08;;;;;;;6.20;3.05;;;18.90;1.00;;;;;;9940864;29;20280;-79
2023/08/21 04:39:29;;;;;;;7.10;3.72;;;19.00;1.00;;;;;;9915090;30;20204;-80
2023/08/21 04:44:51;;;;;;;8.13;4.43;;;19.10;99.90;;;;;;9942354;29;20247;-79
2023/08/21 04:50:15;;;;;;;7.80;3.25;;;19.10;1.00;;;;;;9927703;29;20213;-79
2023/08/21 04:55:36;;;;;;;4.18;3.10;;;19.10;99.90;;;;;;9939917;29;20583;-79
2023/08/21 05:00:59;;;;;;;6.93;3.47;;;19.30;1.00;;;;;;9939813;29;20205;-80
2023/08/21 05:06:21;;;;;;;8.00;3.67;;;19.30;1.00;;;;;;9940022;29;20229;-80
2023/08/21 05:11:43;;;;;;;7.50;3.13;;;19.40;1.00;;;;;;9927743;30;20233;-80
2023/08/21 05:17:07;;;;;;;9.13;4.00;;;19.60;99.90;;;;;;9939776;29;20201;-80
2023/08/21 05:22:29;;;;;;;6.00;3.20;;;19.70;1.00;;;;;;9927018;29;20463;-81
2023/08/21 05:27:52;;;;;;;8.80;3.75;;;19.70;1.00;;;;;;9914286;30;20244;-87
2023/08/21 05:33:13;;;;;;;5.30;2.83;;;19.70;99.90;;;;;;9928492;29;20204;-82
2023/08/21 05:38:36;;;;;;;6.07;3.20;;;19.80;1.00;;;;;;9940030;29;20263;-79
2023/08/21 05:43:57;;;;;;;6.10;3.28;;;19.70;99.90;;;;;;9920472;30;20241;-80
2023/08/21 05:49:19;;;;;;;10.38;3.10;;;19.80;99.90;;;;;;9946175;29;20303;-79
2023/08/21 05:54:40;;;;;;;7.88;3.13;;;19.80;99.90;;;;;;9932980;29;20205;-80
2023/08/21 06:00:02;;;;;;;7.22;2.78;;;20.00;1.00;;;;;;9933022;30;20193;-80
2023/08/21 06:05:34;;;;;;;4.90;2.50;;;20.20;1.00;;;;;;9944155;29;20253;-82
2023/08/21 06:10:57;;;;;;;11.60;3.20;;;20.40;99.90;;;;;;9932795;30;20244;-79
2023/08/21 06:16:19;;;;;;;8.77;3.00;;;20.40;99.90;;;;;;9932070;29;20533;-80
2023/08/21 06:21:43;;;;;;;6.57;3.00;;;20.50;99.90;;;;;;9944896;29;20300;-80
2023/08/21 06:27:04;;;;;;;8.73;3.42;;;20.50;99.90;;;;;;9947637;29;20380;-80
2023/08/21 06:32:28;;;;;;;8.02;2.92;;;20.40;1.00;;;;;;9947007;29;20449;-80
2023/08/21 06:37:49;;;;;;;7.00;2.40;;;20.70;1.00;;;;;;9945005;29;20197;-81
2023/08/21 06:43:10;;;;;;;3.85;2.00;;;21.30;99.90;;;;;;9946697;29;20241;-88
2023/08/21 06:48:40;;;;;;;8.10;2.40;;;22.40;1.00;;;;;;9931535;29;20204;-82
2023/08/21 06:54:02;;;;;;;5.68;1.90;;;22.80;1.00;;;;;;9931440;29;20205;-86
2023/08/21 06:59:24;;;;;;;3.55;1.92;;;24.00;1.00;;;;;;9946177;29;20587;-80
2023/08/21 07:04:45;;;;;;;4.80;2.15;;;23.60;99.90;;;;;;9932592;29;20233;-87
2023/08/21 07:10:08;;;;;;;4.43;1.85;;;24.30;99.90;;;;;;9943585;29;20237;-81
2023/08/21 07:15:30;;;;;;;3.53;1.85;;;25.50;1.00;;;;;;9943789;29;20205;-81
2023/08/21 07:20:54;;;;;;;8.55;2.03;;;25.60;99.90;;;;;;9918212;29;20232;-84
2023/08/21 07:26:16;;;;;;;4.95;2.00;;;25.30;99.90;;;;;;9917995;30;20205;-89
2023/08/21 07:31:37;;;;;;;7.28;2.10;;;24.90;99.90;;;;;;9917527;30;20212;-87
2023/08/21 07:36:59;;;;;;;10.23;2.30;;;;;;;;;;9917013;30;20304;-84
2023/08/21 07:42:20;;;;;;;6.13;1.90;;;26.90;1.00;;;;;;9929056;30;20237;-85
2023/08/21 07:47:41;;;;;;;5.60;1.60;;;27.50;1.00;;;;;;9929124;30;20259;-86
2023/08/21 07:53:03;;;;;;;3.80;1.70;;;;;;;;;;9944329;29;20216;-84
2023/08/21 07:58:24;;;;;;;5.28;1.90;;;28.20;99.90;;;;;;9906845;29;20206;-85
2023/08/21 08:03:46;;;;;;;3.85;1.70;;;;;;;;;;9906224;30;20237;-87
2023/08/21 08:09:07;;;;;;;4.75;1.55;;;;;;;;;;9904182;30;20325;-82
2023/08/21 08:14:29;;;;;;;5.00;1.73;;;29.70;99.90;;;;;;9906660;30;20209;-90
2023/08/21 08:19:50;;;;;;;4.30;1.85;;;29.90;1.00;;;;;;9891912;30;20206;-88
2023/08/21 08:25:13;;;;;;;5.18;1.67;;;30.50;1.00;;;;;;9939439;29;20256;-87
2023/08/21 08:30:35;;;;;;;3.70;1.45;;;29.60;1.00;;;;;;9941140;29;20206;-86
2023/08/21 08:35:56;;;;;;;7.88;1.95;;;29.90;1.00;;;;;;9915801;30;20217;-89
2023/08/21 08:41:24;;;;;;;4.45;1.52;;;29.30;99.90;;;;;;9929244;29;20209;-91
2023/08/21 08:46:46;;;;;;;7.43;2.20;;;29.40;99.90;;;;;;9927775;29;20244;-90
2023/08/21 08:52:07;;;;;;;8.18;1.60;;;29.30;99.90;;;;;;9928781;29;20215;-89
2023/08/21 08:57:29;;;;;;;2.38;1.30;;;30.00;99.90;;;;;;9940412;29;20246;-91
2023/08/21 09:02:50;;;;;;;5.10;1.73;;;30.80;99.90;;;;;;9915142;29;20414;-89
2023/08/21 09:08:13;;;;;;;6.18;1.60;;;31.80;1.00;;;;;;9939986;29;20241;-85
2023/08/21 09:13:34;;;;;;;3.38;1.45;;;32.50;99.90;;;;;;9943156;29;20212;-90
2023/08/21 09:18:56;;;;;;;10.48;1.73;;;32.30;99.90;;;;;;9947761;29;20228;-88
2023/08/21 09:24:18;;;;;;;19.27;2.33;;;32.40;99.90;;;;;;9947064;29;20259;-90
2023/08/21 09:29:41;;;;;;;4.45;1.00;;;32.10;99.90;;;;;;9934650;29;20213;-80
2023/08/21 09:35:03;;;;;;;18.95;2.50;;;32.10;99.90;;;;;;9949261;29;20266;-87
2023/08/21 09:40:24;;;;;;;8.60;2.00;;;31.70;99.90;;;;;;9946922;29;20205;-81
2023/08/21 09:45:52;;;;;;;2.15;1.00;;;31.90;99.90;;;;;;9946747;29;20236;-86
2023/08/21 09:51:13;;;;;;;3.70;1.33;;;32.40;99.90;;;;;;9921167;29;20451;-85
2023/08/21 09:56:36;;;;;;;14.57;2.08;;;32.50;99.90;;;;;;9948454;29;20212;-86
2023/08/21 10:02:00;;;;;;;4.65;1.70;;;32.70;99.90;;;;;;9946079;29;20232;-81
2023/08/21 10:07:23;;;;;;;4.32;1.42;;;;;;;;;;9932619;29;20213;-84
2023/08/21 10:12:45;;;;;;;12.85;1.58;;;33.90;99.90;;;;;;9945288;29;20539;-80
2023/08/21 10:18:31;;;;;;;7.63;1.83;;;33.70;99.90;;;;;;9945507;29;20205;-84
2023/08/21 10:23:55;;;;;;;15.13;2.28;;;33.30;99.90;;;;;;9932392;29;20282;-83
2023/08/21 10:29:16;;;;;;;3.17;1.30;;;32.30;99.90;;;;;;9946464;29;20280;-81
2023/08/21 10:34:38;;;;;;;2.35;0.85;;;32.50;99.90;;;;;;9931834;30;20205;-85
2023/08/21 10:39:59;;;;;;;5.70;1.63;;;32.50;99.90;;;;;;9945392;29;20202;-86
2023/08/21 10:45:20;;;;;;;3.45;1.33;;;32.30;99.90;;;;;;9952321;29;20239;-88
2023/08/21 10:50:42;;;;;;;3.33;1.20;;;31.80;99.90;;;;;;9932657;29;20284;-88
2023/08/21 10:56:05;;;;;;;14.68;2.72;;;32.00;99.90;;;;;;9946405;29;20465;-87
2023/08/21 11:01:41;;;;;;;12.32;1.35;;;32.30;99.90;;;;;;9932995;29;20202;-91
2023/08/21 11:07:03;;;;;;;8.98;1.23;;;31.60;99.90;;;;;;9918826;30;20213;-86
2023/08/21 11:12:24;;;;;;;4.18;1.38;;;30.00;99.90;;;;;;9932129;29;20245;-86
2023/08/21 11:18:00;;;;;;;3.00;1.50;;;30.20;99.90;;;;;;9945743;29;20209;-89
2023/08/21 11:23:21;;;;;;;7.75;1.55;;;30.80;99.90;;;;;;9931885;29;20535;-88
2023/08/21 11:28:42;;;;;;;3.13;1.58;;;30.80;99.90;;;;;;9945589;29;20205;-86
2023/08/21 11:34:05;;;;;;;2.63;1.30;;;30.30;99.90;;;;;;9930367;30;20507;-83
2023/08/21 11:40:09;;;;;;;4.82;1.38;;;30.30;99.90;;;;;;9944856;29;20254;-86
2023/08/21 11:45:30;;;;;;;3.72;1.17;;;30.20;99.90;;;;;;9930718;29;20241;-89
2023/08/21 11:50:55;;;;;;;11.50;1.80;;;30.80;99.90;;;;;;9929863;29;20292;-86
2023/08/21 11:56:17;;;;;;;23.13;2.00;;;30.50;99.90;;;;;;9944712;29;20209;-86
2023/08/21 12:01:39;;;;;;;13.85;1.77;;;31.10;99.90;;;;;;9930038;29;20197;-90
2023/08/21 12:07:00;;;;;;;7.43;1.75;;;31.40;99.90;;;;;;9942906;29;20209;-92
2023/08/21 12:12:23;;;;;;;16.67;1.60;;;30.90;99.90;;;;;;9942409;29;20241;-89
2023/08/21 12:17:44;;;;;;;4.45;1.50;;;30.10;99.90;;;;;;9929539;30;20220;-90
2023/08/21 12:23:05;;;;;;;23.33;2.28;;;30.10;99.90;;;;;;9930410;29;20224;-90
2023/08/21 12:28:27;;;;;;;2.33;1.23;;;29.90;99.90;;;;;;9929997;29;20520;-88
2023/08/21 12:33:48;;;;;;;3.72;1.30;;;29.40;99.90;;;;;;9941963;29;20201;-91
2023/08/21 12:39:09;;;;;;;2.55;1.20;;;29.30;99.90;;;;;;9942252;29;20201;-92
2023/08/21 12:44:30;;;;;;;4.07;1.48;;;29.50;99.90;;;;;;9928223;29;20237;-90
2023/08/21 12:49:52;;;;;;;8.80;1.63;;;29.30;99.90;;;;;;9928009;29;20213;-84
2023/08/21 12:55:14;;;;;;;4.18;1.95;;;29.10;99.90;;;;;;9941241;29;20201;-88
2023/08/21 13:00:36;;;;;;;6.68;1.35;;;28.80;99.90;;;;;;9943481;29;20237;-87
2023/08/21 13:05:57;;;;;;;6.00;1.77;;;28.50;99.90;;;;;;9943641;29;20233;-88
2023/08/21 13:11:19;;;;;;;8.60;2.35;;;28.10;99.90;;;;;;9941137;29;20236;-86
2023/08/21 13:16:40;;;;;;;7.10;1.38;;;27.90;99.90;;;;;;9928118;29;20213;-89
2023/08/21 13:22:01;;;;;;;5.18;1.55;;;27.90;99.90;;;;;;9927895;29;20208;-91
2023/08/21 13:27:23;;;;;;;4.60;1.40;;;27.80;99.90;;;;;;9940533;29;20235;-91
2023/08/21 13:32:44;;;;;;;2.78;0.98;;;27.70;99.90;;;;;;9928210;29;20496;-81
2023/08/21 13:38:06;;;;;;;6.80;1.80;;;27.90;99.90;;;;;;9928761;29;20198;-90
2023/08/21 13:43:27;;;;;;;3.47;1.48;;;28.10;99.90;;;;;;9942024;29;20241;-90
2023/08/21 13:48:49;;;;;;;4.78;1.20;;;28.00;99.90;;;;;;9927175;30;20213;-84
2023/08/21 13:54:11;;;;;;;91.90;5.85;;;28.00;99.90;;;;;;9927242;30;20208;-82
2023/08/21 13:59:32;;;;;;;4.75;1.10;;;28.10;99.90;;;;;;9942115;29;20280;-86
2023/08/21 14:04:54;;;;;;;8.38;1.42;;;28.00;99.90;;;;;;9948248;29;20564;-84
2023/08/21 14:10:15;;;;;;;6.25;1.05;;;28.30;99.90;;;;;;9933964;29;20237;-90
2023/08/21 14:15:37;;;;;;;7.60;1.63;;;28.00;99.90;;;;;;9948365;29;20209;-83
2023/08/21 14:20:58;;;;;;;4.13;1.48;;;27.70;99.90;;;;;;9948181;29;20277;-82
2023/08/21 14:26:19;;;;;;;6.28;1.77;;;27.70;99.90;;;;;;9947831;29;20247;-84
2023/08/21 14:31:41;;;;;;;4.32;1.10;;;27.50;99.90;;;;;;9934066;29;20206;-90
2023/08/21 14:37:04;;;;;;;5.18;1.48;;;27.40;99.90;;;;;;9933450;30;20208;-84
2023/08/21 14:42:25;;;;;;;8.25;1.50;;;;;;;;;;9941157;30;20221;-83
2023/08/21 14:47:46;;;;;;;3.63;1.45;;;27.30;99.90;;;;;;9945867;29;20213;-82
2023/08/21 14:53:08;;;;;;;4.45;1.52;;;27.00;99.90;;;;;;9926857;29;20201;-86
2023/08/21 14:58:29;;;;;;;3.47;1.17;;;27.00;99.90;;;;;;9907525;30;20365;-87
2023/08/21 15:03:51;;;;;;;5.50;1.33;;;26.50;99.90;;;;;;9907535;30;20234;-88
2023/08/21 15:09:13;;;;;;;4.78;1.55;;;26.50;99.90;;;;;;9919215;29;20233;-88
2023/08/21 15:14:34;;;;;;;3.90;1.33;;;26.50;99.90;;;;;;9919343;29;20202;-84
2023/08/21 15:19:55;;;;;;;1.95;0.85;;;26.30;99.90;;;;;;9909013;29;20209;-84
2023/08/21 15:25:17;;;;;;;6.32;1.77;;;26.20;99.90;;;;;;9943538;29;20225;-91
2023/08/21 15:30:39;;;;;;;3.28;1.42;;;;;;;;;;9932016;29;20212;-86
2023/08/21 15:36:00;;;;;;;6.32;1.55;;;25.80;1.00;;;;;;9930424;29;20507;-81
2023/08/21 15:41:21;;;;;;;3.80;1.65;;;26.10;99.90;;;;;;9942806;29;20242;-82
2023/08/21 15:46:43;;;;;;;2.22;0.95;;;;;;;;;;9907622;29;20244;-88
2023/08/21 15:52:05;;;;;;;2.38;1.10;;;25.30;99.90;;;;;;9939444;29;20211;-79
2023/08/21 15:57:26;;;;;;;5.00;1.30;;;25.20;99.90;;;;;;9929138;29;20197;-81
2023/08/21 16:02:49;;;;;;;5.60;1.77;;;25.20;99.90;;;;;;9930332;29;20525;-88
2023/08/21 16:08:10;;;;;;;2.75;1.30;;;25.20;99.90;;;;;;9928579;30;20233;-79
2023/08/21 16:13:32;;;;;;;6.40;1.55;;;24.90;99.90;;;;;;9929608;30;20201;-78
2023/08/21 16:18:53;;;;;;;4.05;1.50;;;24.90;99.90;;;;;;9931227;29;20236;-79
2023/08/21 16:24:14;;;;;;;5.43;1.30;;;;;;;;;;9942276;29;20236;-79
2023/08/21 16:29:36;;;;;;;3.70;1.10;;;;;;;;;;9929162;30;20358;-80
2023/08/21 16:34:58;;;;;;;5.30;1.23;;;;;;;;;;9928076;29;20461;-81
2023/08/21 16:40:23;;;;;;;4.15;1.38;;;;;;;;;;9928888;30;20300;-80
2023/08/21 16:45:44;;;;;;;3.38;1.38;;;;;;;;;;9927517;29;20309;-78
2023/08/21 16:51:06;;;;;;;8.02;1.50;;;;;;;;;;9936347;29;20205;-80
2023/08/21 16:56:27;;;;;;;3.75;1.25;;;24.60;1.00;;;;;;9955106;29;20212;-86
2023/08/21 17:01:48;;;;;;;3.15;1.00;;;24.50;1.00;;;;;;9943301;29;20208;-78
2023/08/21 17:07:10;;;;;;;5.13;1.52;;;;;;;;;;9939795;29;20328;-80
2023/08/21 17:12:31;;;;;;;10.27;1.60;;;24.00;99.90;;;;;;9927161;29;20237;-80
2023/08/21 17:17:53;;;;;;;7.55;1.25;;;23.80;99.90;;;;;;9942005;29;20266;-81
2023/08/21 17:23:14;;;;;;;5.47;1.40;;;23.70;99.90;;;;;;9927893;30;20232;-81
2023/08/21 17:28:35;;;;;;;3.40;2.00;;;23.60;99.90;;;;;;9939712;29;20205;-80
2023/08/21 17:33:57;;;;;;;6.13;2.17;;;23.50;99.90;;;;;;9941619;29;20258;-80
2023/08/21 17:39:18;;;;;;;6.93;1.80;;;23.40;99.90;;;;;;9923746;29;20492;-80
2023/08/21 17:44:40;;;;;;;2.70;1.40;;;23.30;99.90;;;;;;9936055;29;20244;-84
2023/08/21 17:50:02;;;;;;;4.80;1.20;;;;;;;;;;9933736;30;20249;-80
2023/08/21 17:55:23;;;;;;;4.05;1.90;;;22.90;99.90;;;;;;9933745;29;20565;-82
2023/08/21 18:00:45;;;;;;;3.13;1.33;;;22.90;99.90;;;;;;9921064;29;20216;-89
2023/08/21 18:06:07;;;;;;;4.65;1.38;;;;;;;;;;9946143;29;20224;-80
2023/08/21 18:11:29;;;;;;;6.40;2.22;;;22.60;99.90;;;;;;9948066;29;20248;-83
2023/08/21 18:16:59;;;;;;;4.47;1.80;;;22.50;99.90;;;;;;9933924;30;20213;-80
2023/08/21 18:22:21;;;;;;;4.82;1.63;;;22.50;99.90;;;;;;9945628;29;20511;-84
2023/08/21 18:39:56;;;;;;;4.78;2.08;;;22.10;99.90;;;;;;9945824;29;20272;-90
2023/08/21 18:45:17;;;;;;;3.95;1.90;;;22.00;99.90;;;;;;9921089;29;20233;-91
2023/08/21 18:50:42;;;;;;;7.57;1.83;;;21.90;99.90;;;;;;9919167;30;20205;-90
2023/08/21 18:56:05;;;;;;;3.78;1.63;;;21.90;99.90;;;;;;9931925;29;20220;-85
2023/08/21 19:01:26;;;;;;;6.60;1.55;;;;;;;;;;9944971;29;20209;-90
2023/08/21 19:06:50;;;;;;;4.45;1.30;;;;;;;;;;9934335;29;20466;-91
2023/08/21 19:12:20;;;;;;;7.20;2.45;;;;;;;;;;9944623;29;20242;-92
2023/08/21 19:17:44;;;;;;;5.93;2.75;;;;;;;;;;9944423;29;20526;-91
2023/08/21 19:23:06;;;;;;;7.35;2.58;;;;;;;;;;9944502;29;20225;-90
2023/08/21 19:28:27;;;;;;;4.90;1.85;;;;;;;;;;9943619;29;20205;-84
2023/08/21 19:33:48;;;;;;;4.45;2.03;;;;;;;;;;9930320;29;20212;-83
2023/08/21 19:39:10;;;;;;;5.70;1.83;;;;;;;;;;9943179;29;20490;-82
2023/08/21 19:44:32;;;;;;;6.40;2.60;;;;;;;;;;9929421;29;20546;-82
2023/08/21 19:49:53;;;;;;;4.00;2.05;;;;;;;;;;9944693;29;20209;-84
2023/08/21 19:55:15;;;;;;;5.65;1.88;;;;;;;;;;9929776;29;20207;-82
2023/08/21 20:00:40;;;;;;;2.92;1.83;;;;;;;;;;9929367;29;20208;-86
2023/08/21 20:06:07;;;;;;;5.38;1.42;;;;;;;;;;9929410;30;20236;-85
2023/08/21 20:11:28;;;;;;;3.35;1.65;;;;;;;;;;9941536;29;20288;-83
2023/08/21 20:16:50;;;;;;;6.07;1.83;;;;;;;;;;9941389;29;20227;-85
2023/08/21 20:22:12;;;;;;;3.22;1.45;;;;;;;;;;9929707;30;20201;-81
2023/08/21 20:27:34;;;;;;;4.55;1.70;;;;;;;;;;9941113;29;20255;-85
2023/08/21 20:32:57;;;;;;;5.85;1.45;;;;;;;;;;9929543;30;20562;-86
2023/08/21 20:38:19;;;;;;;3.70;1.42;;;;;;;;;;9928290;29;20205;-82
2023/08/21 20:54:20;;;;;;;3.05;1.50;;;;;;;;;;9940983;29;20334;-79
2023/08/21 20:59:42;;;;;;;4.20;1.23;;;;;;;;;;9927951;30;20207;-81
2023/08/21 21:05:05;;;;;;;5.93;1.50;;;;;;;;;;9942519;29;20228;-82
2023/08/21 21:10:27;;;;;;;3.13;1.35;;;19.90;77.30;;;;;;9942426;29;20295;-86
2023/08/21 21:15:49;;;;;;;4.72;1.70;;;19.70;99.90;;;;;;9935413;30;20221;-80
2023/08/21 21:21:10;;;;;;;2.67;1.30;;;19.50;99.90;;;;;;9936071;30;20198;-80
2023/08/21 21:31:51;;;;;;;3.13;1.30;;;19.40;99.90;;;;;;9950616;29;20272;-79
2023/08/21 21:37:12;;;;;;;4.85;1.70;;;19.30;99.90;;;;;;9957593;29;20217;-82
2023/08/21 21:42:34;;;;;;;3.35;1.38;;;19.20;1.00;;;;;;9954016;29;20204;-80
2023/08/21 21:47:55;;;;;;;5.18;1.50;;;19.20;1.00;;;;;;9947019;29;20223;-80
2023/08/21 21:53:17;;;;;;;3.10;1.50;;;19.10;1.00;;;;;;9935716;29;20324;-91
2023/08/21 21:58:38;;;;;;;3.95;1.13;;;19.00;1.00;;;;;;9934133;30;20211;-83
2023/08/21 22:04:00;;;;;;;4.60;1.70;;;18.90;1.00;;;;;;9946293;29;20254;-79
2023/08/21 22:09:21;;;;;;;2.53;1.60;;;;;;;;;;9933036;30;20732;-79
2023/08/21 22:14:43;;;;;;;2.50;1.10;;;18.80;1.00;;;;;;9933305;30;20208;-83
2023/08/21 22:20:05;;;;;;;5.22;1.55;;;18.80;1.00;;;;;;9948079;29;20216;-81
2023/08/21 22:25:27;;;;;;;5.95;2.25;;;18.80;1.00;;;;;;9907005;29;20531;-86
2023/08/21 22:30:48;;;;;;;3.42;1.42;;;;;;;;;;9908393;30;20209;-83
2023/08/21 22:36:09;;;;;;;3.40;1.33;;;18.60;66.20;;;;;;9894999;30;20417;-80
2023/08/21 22:41:31;;;;;;;4.82;1.67;;;18.60;99.90;;;;;;9895917;30;20210;-79
2023/08/21 22:46:52;;;;;;;4.55;1.40;;;18.50;99.90;;;;;;9932976;29;20235;-80
2023/08/21 22:52:13;;;;;;;5.20;1.63;;;18.50;99.90;;;;;;9933398;29;20213;-82
2023/08/21 22:57:34;;;;;;;3.00;1.40;;;18.40;1.00;;;;;;9946509;29;20205;-80
2023/08/21 23:02:56;;;;;;;6.05;2.10;;;18.40;99.90;;;;;;9931509;29;20254;-79
2023/08/21 23:08:17;;;;;;;5.63;1.83;;;18.40;1.00;;;;;;9943703;29;20245;-79
2023/08/21 23:13:39;;;;;;;4.90;1.55;;;18.40;1.00;;;;;;9930865;29;20579;-81
2023/08/21 23:19:00;;;;;;;4.53;1.83;;;;;;;;;;9945924;29;20213;-80
2023/08/21 23:24:22;;;;;;;9.15;1.77;;;18.20;1.00;;;;;;9945405;29;20590;-84
2023/08/21 23:29:43;;;;;;;6.80;1.60;;;18.30;1.00;;;;;;9931660;29;20204;-80
2023/08/21 23:35:05;;;;;;;3.17;1.35;;;18.10;1.00;;;;;;9930288;29;20209;-80
2023/08/21 23:40:26;;;;;;;5.10;1.80;;;18.10;1.00;;;;;;9942842;29;20205;-81
2023/08/21 23:45:47;;;;;;;4.95;1.58;;;18.00;1.00;;;;;;9944821;29;20519;-79
2023/08/21 23:51:09;;;;;;;7.50;2.33;;;18.00;99.90;;;;;;9944184;29;20262;-81
2023/08/21 23:56:31;;;;;;;5.28;1.48;;;17.90;99.90;;;;;;9942371;29;20208;-82
